Moores Mill, Mississippi
Current Conditions -  °F | °C
As of 10:35 PM on Saturday 22 Nov 2014 (Local Time) from KCRX Reporting Station
Broken Clouds Broken Clouds  
Wind Chill: 55°   Ceiling: 4900
Heat Index: 55°   Visibility: 10mi
Dew Point: 48°   Wind: 7mph
Humidity: 77%   Direction: 130°SE
Pressure: 30.02"   Gusts: NA
Location:  34.5651°N, 88.1896°W
Report Text: KCRX 230435Z AUTO 13006KT 10SM FEW029 BKN049 13/09 A3002 RMK AO2
Loading
Personal Weather Stations






























Interactive Weather Map New forecast layout! Learn more

10-Day Weather Forecast

Advertisements
Track Severe Weather on mobile